createdAt,value
2022-12-01T00:01:18.181Z,-1.82
2022-12-01T00:03:46.361Z,-1.82
2022-12-01T00:06:16.490Z,-1.86
2022-12-01T00:09:04.334Z,-1.88
2022-12-01T00:11:33.127Z,-1.91
2022-12-01T00:14:02.542Z,-1.96
2022-12-01T00:16:30.815Z,-1.99
2022-12-01T00:18:59.017Z,-2.02
2022-12-01T00:21:27.512Z,-2.04
2022-12-01T00:23:56.924Z,-2.07
2022-12-01T00:26:26.242Z,-2.07
2022-12-01T00:28:55.957Z,-2.16
2022-12-01T00:31:24.149Z,-2.19
2022-12-01T00:33:52.289Z,-2.15
2022-12-01T00:36:20.296Z,-2.17
2022-12-01T00:38:48.384Z,-2.14
2022-12-01T00:41:16.463Z,-2.13
2022-12-01T00:43:44.746Z,-2.14
2022-12-01T00:46:12.853Z,-2.18
2022-12-01T00:48:41.005Z,-2.18
2022-12-01T00:51:09.396Z,-2.15
2022-12-01T00:53:37.476Z,-2.14
2022-12-01T00:56:05.659Z,-2.11
2022-12-01T00:58:33.740Z,-2.13
2022-12-01T01:01:02.523Z,-2.14
2022-12-01T01:03:31.130Z,-2.14
2022-12-01T01:06:04.329Z,-2.17
2022-12-01T01:08:32.409Z,-2.36
2022-12-01T01:11:01.615Z,-2.40
2022-12-01T01:13:30.216Z,-2.47
2022-12-01T01:15:59.937Z,-2.42
2022-12-01T01:18:28.328Z,-2.37
2022-12-01T01:21:15.565Z,-2.38
2022-12-01T01:23:44.050Z,-2.48
2022-12-01T01:26:17.684Z,-2.54
2022-12-01T01:28:46.561Z,-2.48
2022-12-01T01:31:15.810Z,-2.60
2022-12-01T01:33:44.668Z,-2.67
2022-12-01T01:36:13.257Z,-2.68
2022-12-01T01:38:41.852Z,-2.64
2022-12-01T01:41:10.860Z,-2.61
2022-12-01T01:43:47.947Z,-2.56
2022-12-01T01:46:17.551Z,-2.50
2022-12-01T01:49:05.923Z,-2.46
2022-12-01T01:51:37.178Z,-2.44
2022-12-01T01:54:08.435Z,-2.45
2022-12-01T01:56:37.331Z,-2.43
2022-12-01T01:59:05.520Z,-2.40
2022-12-01T02:01:33.919Z,-2.47
2022-12-01T02:04:03.113Z,-2.56
2022-12-01T02:06:31.368Z,-2.58
2022-12-01T02:08:59.476Z,-2.61
2022-12-01T02:11:48.712Z,-2.61
2022-12-01T02:14:25.180Z,-2.61
2022-12-01T02:16:59.889Z,-2.61
2022-12-01T02:19:54.567Z,-2.62
2022-12-01T02:22:30.224Z,-2.56
2022-12-01T02:24:58.200Z,-2.50
2022-12-01T02:27:29.865Z,-2.46
2022-12-01T02:30:09.406Z,-2.48
2022-12-01T02:32:55.722Z,-2.48
2022-12-01T02:35:43.879Z,-2.48
2022-12-01T02:38:19.944Z,-2.53
2022-12-01T02:40:53.865Z,-2.56
2022-12-01T02:43:25.019Z,-2.62
2022-12-01T02:46:02.085Z,-2.64
2022-12-01T02:48:32.855Z,-2.65
2022-12-01T02:51:04.110Z,-2.68
2022-12-01T02:53:32.398Z,-2.68
2022-12-01T02:56:00.577Z,-2.71
2022-12-01T02:58:28.555Z,-2.81
2022-12-01T03:00:56.715Z,-2.79
2022-12-01T03:03:27.997Z,-2.79
2022-12-01T03:06:03.223Z,-2.81
2022-12-01T03:08:31.327Z,-2.78
2022-12-01T03:10:59.915Z,-2.76
2022-12-01T03:13:46.595Z,-2.74
2022-12-01T03:16:19.118Z,-2.71
2022-12-01T03:18:59.368Z,-2.67
2022-12-01T03:21:32.208Z,-2.70
2022-12-01T03:24:02.605Z,-2.70
2022-12-01T03:26:32.659Z,-2.69
2022-12-01T03:29:06.888Z,-2.65
2022-12-01T03:31:40.777Z,-2.61
2022-12-01T03:34:11.808Z,-2.64
2022-12-01T03:36:49.105Z,-2.64
2022-12-01T03:39:28.225Z,-2.64
2022-12-01T03:42:01.313Z,-2.64
2022-12-01T03:44:37.015Z,-2.67
2022-12-01T03:47:10.973Z,-2.76
2022-12-01T03:49:40.116Z,-2.81
2022-12-01T03:52:28.305Z,-2.84
2022-12-01T03:55:09.191Z,-2.87
2022-12-01T03:57:57.524Z,-2.85
2022-12-01T04:00:25.356Z,-2.82
2022-12-01T04:02:58.004Z,-2.74
2022-12-01T04:05:26.715Z,-2.70
2022-12-01T04:07:55.145Z,-2.68
2022-12-01T04:10:23.257Z,-2.68
2022-12-01T04:12:51.342Z,-2.69
2022-12-01T04:15:19.419Z,-2.83
2022-12-01T04:17:47.557Z,-2.87
2022-12-01T04:20:16.101Z,-2.96
2022-12-01T04:22:44.593Z,-2.97
2022-12-01T04:25:12.672Z,-2.92
2022-12-01T04:27:40.853Z,-2.94
2022-12-01T04:30:09.346Z,-2.98
2022-12-01T04:32:40.803Z,-2.99
2022-12-01T04:35:10.111Z,-2.92
2022-12-01T04:37:38.784Z,-2.83
2022-12-01T04:40:07.227Z,-2.80
2022-12-01T04:42:35.375Z,-2.77
2022-12-01T04:45:03.655Z,-2.74
2022-12-01T04:47:31.519Z,-2.76
2022-12-01T04:49:59.506Z,-2.75
2022-12-01T04:52:30.729Z,-2.68
2022-12-01T04:55:03.965Z,-2.68
2022-12-01T04:57:31.946Z,-2.65
2022-12-01T05:00:00.033Z,-2.74
2022-12-01T05:02:28.182Z,-2.84
2022-12-01T05:04:56.593Z,-2.87
2022-12-01T05:07:24.621Z,-2.86
2022-12-01T05:09:52.755Z,-2.86
2022-12-01T05:12:21.037Z,-2.89
2022-12-01T05:14:49.118Z,-2.94
2022-12-01T05:17:17.198Z,-2.95
2022-12-01T05:20:03.869Z,-2.95
2022-12-01T05:23:03.755Z,-2.92
2022-12-01T05:25:19.827Z,-2.91
2022-12-01T05:27:47.704Z,-2.93
2022-12-01T05:30:15.885Z,-2.92
2022-12-01T05:32:43.966Z,-2.88
2022-12-01T05:35:12.049Z,-2.89
2022-12-01T05:37:40.132Z,-2.93
2022-12-01T05:40:08.522Z,-2.96
2022-12-01T05:42:36.492Z,-2.99
2022-12-01T05:45:04.780Z,-2.97
2022-12-01T05:47:32.633Z,-2.95
2022-12-01T05:50:05.170Z,-2.98
2022-12-01T05:52:35.368Z,-3.02
2022-12-01T05:55:06.836Z,-3.07
2022-12-01T05:57:34.693Z,-3.04
2022-12-01T06:00:05.445Z,-3.04
2022-12-01T06:02:40.481Z,-3.02
2022-12-01T06:05:09.438Z,-3.02
2022-12-01T06:07:40.357Z,-2.99
2022-12-01T06:10:09.679Z,-2.93
2022-12-01T06:12:37.925Z,-2.90
2022-12-01T06:15:06.791Z,-2.87
2022-12-01T06:17:40.029Z,-2.85
2022-12-01T06:20:09.755Z,-2.79
2022-12-01T06:22:37.934Z,-2.78
2022-12-01T06:25:06.425Z,-2.82
2022-12-01T06:27:34.401Z,-2.79
2022-12-01T06:30:02.889Z,-2.74
2022-12-01T06:32:30.830Z,-2.73
2022-12-01T06:34:59.277Z,-2.65
2022-12-01T06:37:27.971Z,-2.58
2022-12-01T06:39:55.843Z,-2.55
2022-12-01T06:42:23.836Z,-2.49
2022-12-01T06:44:52.078Z,-2.47
2022-12-01T06:47:19.957Z,-2.44
2022-12-01T06:49:48.325Z,-2.38
2022-12-01T06:52:16.426Z,-2.32
2022-12-01T06:54:44.300Z,-2.23
2022-12-01T06:57:12.534Z,-2.15
2022-12-01T06:59:41.184Z,-2.08
2022-12-01T07:02:12.788Z,-1.99
2022-12-01T07:04:40.923Z,-1.87
2022-12-01T07:07:08.827Z,-1.76
2022-12-01T07:09:36.680Z,-1.69
2022-12-01T07:12:05.044Z,-1.63
2022-12-01T07:14:32.962Z,-1.58
2022-12-01T07:17:00.939Z,-1.49
2022-12-01T07:19:28.895Z,-1.44
2022-12-01T07:21:56.963Z,-1.34
2022-12-01T07:24:25.121Z,-1.27
2022-12-01T07:26:53.096Z,-1.18
2022-12-01T07:29:20.969Z,-1.11
2022-12-01T07:31:48.869Z,-1.05
2022-12-01T07:34:16.721Z,-0.99
2022-12-01T07:36:44.597Z,-0.92
2022-12-01T07:39:12.787Z,-0.86
2022-12-01T07:41:40.915Z,-0.80
2022-12-01T07:44:12.414Z,-0.75
2022-12-01T07:46:40.485Z,-0.69
2022-12-01T07:49:09.103Z,-0.61
2022-12-01T07:51:37.153Z,-0.44
2022-12-01T07:54:06.465Z,-0.30
2022-12-01T07:56:34.747Z,-0.16
2022-12-01T07:59:02.822Z,-0.06
2022-12-01T08:01:30.853Z,0.08
2022-12-01T08:04:00.646Z,0.20
2022-12-01T08:06:28.594Z,0.36
2022-12-01T08:08:56.691Z,0.52
2022-12-01T08:11:29.933Z,0.67
2022-12-01T08:13:58.052Z,0.84
2022-12-01T08:16:26.027Z,0.97
2022-12-01T08:18:54.307Z,1.10
2022-12-01T08:21:23.279Z,1.27
2022-12-01T08:23:55.176Z,1.42
2022-12-01T08:26:24.066Z,1.53
2022-12-01T08:28:52.068Z,1.67
2022-12-01T08:31:21.891Z,1.86
2022-12-01T08:33:50.786Z,2.04
2022-12-01T08:36:20.605Z,2.13
2022-12-01T08:38:49.779Z,2.15
2022-12-01T08:41:17.758Z,2.15
2022-12-01T08:44:01.875Z,2.20
2022-12-01T08:46:34.424Z,2.25
2022-12-01T08:49:03.077Z,2.28
2022-12-01T08:51:30.973Z,2.35
2022-12-01T08:53:59.724Z,2.41
2022-12-01T08:56:38.685Z,2.58
2022-12-01T08:59:06.777Z,2.69
2022-12-01T09:01:34.919Z,2.76
2022-12-01T09:04:06.513Z,2.78
2022-12-01T09:06:38.676Z,2.77
2022-12-01T09:09:07.476Z,2.74
2022-12-01T09:11:35.440Z,2.73
2022-12-01T09:14:03.413Z,2.76
2022-12-01T09:16:31.892Z,2.76
2022-12-01T09:18:59.975Z,2.75
2022-12-01T09:21:30.869Z,2.74
2022-12-01T09:23:59.540Z,2.74
2022-12-01T09:26:27.823Z,2.78
2022-12-01T09:28:57.514Z,2.86
2022-12-01T09:31:25.681Z,2.91
2022-12-01T09:34:01.877Z,2.90
2022-12-01T09:36:31.387Z,2.93
2022-12-01T09:39:00.304Z,2.99
2022-12-01T09:41:31.220Z,3.16
2022-12-01T09:43:59.199Z,3.31
2022-12-01T09:46:30.743Z,3.42
2022-12-01T09:49:01.495Z,3.50
2022-12-01T09:51:31.154Z,3.63
2022-12-01T09:53:59.931Z,3.68
2022-12-01T09:56:29.875Z,3.71
2022-12-01T09:59:01.788Z,3.80
2022-12-01T10:01:34.742Z,3.86
2022-12-01T10:04:08.287Z,3.85
2022-12-01T10:06:38.751Z,3.94
2022-12-01T10:09:22.163Z,4.00
2022-12-01T10:11:52.082Z,4.02
2022-12-01T10:14:21.211Z,4.03
2022-12-01T10:16:55.872Z,4.09
2022-12-01T10:19:29.042Z,4.14
2022-12-01T10:22:03.268Z,4.13
2022-12-01T10:24:44.001Z,4.15
2022-12-01T10:27:24.161Z,4.20
2022-12-01T10:30:04.731Z,4.31
2022-12-01T10:32:35.568Z,4.34
2022-12-01T10:35:04.158Z,4.35
2022-12-01T10:37:32.575Z,4.39
2022-12-01T10:40:00.825Z,4.40
2022-12-01T10:42:37.912Z,4.39
2022-12-01T10:45:07.916Z,4.42
2022-12-01T10:47:36.223Z,4.53
2022-12-01T10:50:04.515Z,4.63
2022-12-01T10:52:34.674Z,4.74
2022-12-01T10:55:04.364Z,4.87
2022-12-01T10:57:32.582Z,4.90
2022-12-01T11:00:06.159Z,4.91
2022-12-01T11:02:35.558Z,4.88
2022-12-01T11:05:03.870Z,4.97
2022-12-01T11:07:34.779Z,5.03
2022-12-01T11:10:03.342Z,5.10
2022-12-01T11:12:31.727Z,5.15
2022-12-01T11:15:00.112Z,5.24
2022-12-01T11:17:45.231Z,5.33
2022-12-01T11:20:26.832Z,5.47
2022-12-01T11:23:09.972Z,5.52
2022-12-01T11:25:38.229Z,5.70
2022-12-01T11:28:06.431Z,5.79
2022-12-01T11:30:34.686Z,5.80
2022-12-01T11:33:07.296Z,5.74
2022-12-01T11:35:46.526Z,5.72
2022-12-01T11:38:30.265Z,5.60
2022-12-01T11:40:58.800Z,5.50
2022-12-01T11:43:27.019Z,5.49
2022-12-01T11:45:56.092Z,5.51
2022-12-01T11:48:29.080Z,5.53
2022-12-01T11:51:07.721Z,5.52
2022-12-01T11:53:37.020Z,5.50
2022-12-01T11:56:23.657Z,5.49
2022-12-01T11:58:58.063Z,5.51
2022-12-01T12:01:29.221Z,5.49
2022-12-01T12:04:20.719Z,5.42
2022-12-01T12:06:57.561Z,5.39
2022-12-01T12:09:25.571Z,5.40
2022-12-01T12:12:14.586Z,5.45
2022-12-01T12:14:48.647Z,5.51
2022-12-01T12:17:24.957Z,5.56
2022-12-01T12:20:12.319Z,5.60
2022-12-01T12:23:03.986Z,5.65
2022-12-01T12:25:52.363Z,5.71
2022-12-01T12:28:23.605Z,5.69
2022-12-01T12:30:52.222Z,5.69
2022-12-01T12:33:26.132Z,5.72
2022-12-01T12:36:01.870Z,5.74
2022-12-01T12:38:42.221Z,5.71
2022-12-01T12:41:13.168Z,5.66
2022-12-01T12:43:56.681Z,5.61
2022-12-01T12:46:35.691Z,5.62
2022-12-01T12:49:20.469Z,5.62
2022-12-01T12:51:52.588Z,5.64
2022-12-01T12:54:42.074Z,5.65
2022-12-01T12:57:21.001Z,5.66
2022-12-01T12:59:53.279Z,5.64
2022-12-01T13:02:27.029Z,5.63
2022-12-01T13:05:09.506Z,5.58
2022-12-01T13:07:57.847Z,5.53
2022-12-01T13:10:49.346Z,5.46
2022-12-01T13:13:21.263Z,5.39
2022-12-01T13:15:51.005Z,5.34
2022-12-01T13:18:25.378Z,5.28
2022-12-01T13:20:55.580Z,5.21
2022-12-01T13:23:26.273Z,5.18
2022-12-01T13:25:56.062Z,5.18
2022-12-01T13:28:27.468Z,5.18
2022-12-01T13:31:15.200Z,5.17
2022-12-01T13:33:54.970Z,5.15
2022-12-01T13:36:45.889Z,5.11
2022-12-01T13:39:35.870Z,5.08
2022-12-01T13:42:06.336Z,5.03
2022-12-01T13:44:44.895Z,4.97
2022-12-01T13:47:12.993Z,4.91
2022-12-01T13:49:42.751Z,4.87
2022-12-01T13:52:23.132Z,4.83
2022-12-01T13:55:10.016Z,4.79
2022-12-01T13:57:37.977Z,4.72
2022-12-01T14:00:21.505Z,4.66
2022-12-01T14:03:08.933Z,4.60
2022-12-01T14:05:39.857Z,4.54
2022-12-01T14:08:19.665Z,4.49
2022-12-01T14:10:56.957Z,4.40
2022-12-01T14:13:26.041Z,4.33
2022-12-01T14:15:56.288Z,4.30
2022-12-01T14:18:50.978Z,4.22
2022-12-01T14:21:38.920Z,4.13
2022-12-01T14:24:07.344Z,4.06
2022-12-01T14:26:44.917Z,3.97
2022-12-01T14:29:30.591Z,3.92
2022-12-01T14:32:01.311Z,3.84
2022-12-01T14:34:34.972Z,3.74
2022-12-01T14:37:06.149Z,3.65
2022-12-01T14:39:35.969Z,3.58
2022-12-01T14:42:12.809Z,3.50
2022-12-01T14:44:54.250Z,3.41
2022-12-01T14:47:24.041Z,3.30
2022-12-01T14:49:55.078Z,3.20
2022-12-01T14:52:26.324Z,3.14
2022-12-01T14:54:57.391Z,3.07
2022-12-01T14:57:32.429Z,3.00
2022-12-01T15:00:03.471Z,2.91
2022-12-01T15:02:31.703Z,2.86
2022-12-01T15:05:17.852Z,2.75
2022-12-01T15:07:48.761Z,2.68
2022-12-01T15:10:18.417Z,2.62
2022-12-01T15:12:46.593Z,2.55
2022-12-01T15:15:25.849Z,2.47
2022-12-01T15:17:55.963Z,2.38
2022-12-01T15:20:34.859Z,2.33
2022-12-01T15:23:08.860Z,2.27
2022-12-01T15:25:41.380Z,2.19
2022-12-01T15:28:17.286Z,2.11
2022-12-01T15:30:50.870Z,2.05
2022-12-01T15:33:25.505Z,1.98
2022-12-01T15:35:55.757Z,1.92
2022-12-01T15:38:31.548Z,1.88
2022-12-01T15:41:28.036Z,1.79
2022-12-01T15:43:56.245Z,1.70
2022-12-01T15:46:28.608Z,1.67
2022-12-01T15:49:17.477Z,1.62
2022-12-01T15:51:46.788Z,1.54
2022-12-01T15:54:23.257Z,1.49
2022-12-01T15:56:52.648Z,1.43
2022-12-01T15:59:28.951Z,1.40
2022-12-01T16:01:57.283Z,1.33
2022-12-01T16:04:26.741Z,1.27
2022-12-01T16:07:07.133Z,1.21
2022-12-01T16:09:37.172Z,1.19
2022-12-01T16:12:23.439Z,1.15
2022-12-01T16:14:51.677Z,1.09
2022-12-01T16:17:20.329Z,1.06
2022-12-01T16:19:48.397Z,1.04
2022-12-01T16:22:19.148Z,1.03
2022-12-01T16:24:47.116Z,1.01
2022-12-01T16:27:28.922Z,0.97
2022-12-01T16:29:58.639Z,0.95
2022-12-01T16:32:34.228Z,0.93
2022-12-01T16:35:04.442Z,0.92
2022-12-01T16:37:32.722Z,0.91
2022-12-01T16:40:00.729Z,0.90
2022-12-01T16:42:28.970Z,0.91
2022-12-01T16:44:57.064Z,0.93
2022-12-01T16:47:25.520Z,0.98
2022-12-01T16:49:53.520Z,1.02
2022-12-01T16:52:43.722Z,1.02
2022-12-01T16:55:18.594Z,1.05
2022-12-01T16:57:46.472Z,1.07
2022-12-01T17:00:14.815Z,1.09
2022-12-01T17:02:42.771Z,1.15
2022-12-01T17:05:11.575Z,1.19
2022-12-01T17:07:39.521Z,1.21
2022-12-01T17:10:07.972Z,1.22
2022-12-01T17:12:36.440Z,1.26
2022-12-01T17:15:05.133Z,1.28
2022-12-01T17:17:33.334Z,1.31
2022-12-01T17:20:01.198Z,1.28
2022-12-01T17:22:29.168Z,1.22
2022-12-01T17:24:57.259Z,1.13
2022-12-01T17:27:27.697Z,1.16
2022-12-01T17:29:55.645Z,1.23
2022-12-01T17:32:23.640Z,1.26
2022-12-01T17:34:51.989Z,1.27
2022-12-01T17:37:21.281Z,1.31
2022-12-01T17:39:49.831Z,1.35
2022-12-01T17:42:17.808Z,1.39
2022-12-01T17:44:45.898Z,1.40
2022-12-01T17:47:13.795Z,1.32
2022-12-01T17:49:41.953Z,1.27
2022-12-01T17:52:10.273Z,1.31
2022-12-01T17:54:38.727Z,1.33
2022-12-01T17:57:09.576Z,1.39
2022-12-01T17:59:37.806Z,1.41
2022-12-01T18:02:06.812Z,1.41
2022-12-01T18:04:34.995Z,1.43
2022-12-01T18:07:03.418Z,1.45
2022-12-01T18:09:31.720Z,1.45
2022-12-01T18:12:00.604Z,1.44
2022-12-01T18:14:32.795Z,1.49
2022-12-01T18:17:00.767Z,1.51
2022-12-01T18:19:28.734Z,1.53
2022-12-01T18:21:56.784Z,1.55
2022-12-01T18:24:25.307Z,1.47
2022-12-01T18:26:54.415Z,1.45
2022-12-01T18:29:26.205Z,1.47
2022-12-01T18:31:58.660Z,1.48
2022-12-01T18:34:29.486Z,1.45
2022-12-01T18:36:57.744Z,1.36
2022-12-01T18:39:25.623Z,1.33
2022-12-01T18:41:53.686Z,1.31
2022-12-01T18:44:21.805Z,1.36
2022-12-01T18:46:50.280Z,1.36
2022-12-01T18:49:18.720Z,1.39
2022-12-01T18:51:46.669Z,1.38
2022-12-01T18:54:15.458Z,1.40
2022-12-01T18:56:43.539Z,1.44
2022-12-01T18:59:12.023Z,1.35
2022-12-01T19:01:41.455Z,1.35
2022-12-01T19:04:10.051Z,1.35
2022-12-01T19:06:39.350Z,1.37
2022-12-01T19:09:11.831Z,1.44
2022-12-01T19:11:40.715Z,1.47
2022-12-01T19:14:13.090Z,1.41
2022-12-01T19:16:41.356Z,1.45
2022-12-01T19:19:09.792Z,1.53
2022-12-01T19:21:37.873Z,1.54
2022-12-01T19:24:06.163Z,1.58
2022-12-01T19:26:34.146Z,1.62
2022-12-01T19:29:03.681Z,1.59
2022-12-01T19:31:31.847Z,1.57
2022-12-01T19:34:00.928Z,1.58
2022-12-01T19:36:28.927Z,1.63
2022-12-01T19:38:58.036Z,1.66
2022-12-01T19:41:26.520Z,1.69
2022-12-01T19:43:55.150Z,1.70
2022-12-01T19:46:24.409Z,1.70
2022-12-01T19:48:54.452Z,1.72
2022-12-01T19:51:23.967Z,1.76
2022-12-01T19:53:52.859Z,1.72
2022-12-01T19:56:21.095Z,1.71
2022-12-01T19:58:49.132Z,1.71
2022-12-01T20:01:18.306Z,1.74
2022-12-01T20:03:50.519Z,1.69
2022-12-01T20:06:19.823Z,1.68
2022-12-01T20:08:48.194Z,1.74
2022-12-01T20:11:16.168Z,1.75
2022-12-01T20:13:45.194Z,1.75
2022-12-01T20:16:15.400Z,1.78
2022-12-01T20:18:43.830Z,1.81
2022-12-01T20:21:15.973Z,1.82
2022-12-01T20:23:44.918Z,1.80
2022-12-01T20:26:13.346Z,1.84
2022-12-01T20:28:41.947Z,1.86
2022-12-01T20:31:12.687Z,1.88
2022-12-01T20:33:41.258Z,1.88
2022-12-01T20:36:10.012Z,1.85
2022-12-01T20:38:38.530Z,1.84
2022-12-01T20:41:06.677Z,1.80
2022-12-01T20:43:35.177Z,1.79
2022-12-01T20:46:03.367Z,1.74
2022-12-01T20:48:31.974Z,1.74
2022-12-01T20:51:04.540Z,1.77
2022-12-01T20:53:32.743Z,1.81
2022-12-01T20:56:04.684Z,1.81
2022-12-01T20:58:37.170Z,1.80
2022-12-01T21:01:09.296Z,1.79
2022-12-01T21:03:38.616Z,1.84
2022-12-01T21:06:07.359Z,1.82
2022-12-01T21:08:39.431Z,1.89
2022-12-01T21:11:13.450Z,1.88
2022-12-01T21:13:44.079Z,1.87
2022-12-01T21:16:21.429Z,1.87
2022-12-01T21:18:55.141Z,1.89
2022-12-01T21:21:26.668Z,1.91
2022-12-01T21:24:14.815Z,1.90
2022-12-01T21:26:47.635Z,1.95
2022-12-01T21:29:23.171Z,1.94
2022-12-01T21:31:52.652Z,1.91
2022-12-01T21:34:20.769Z,1.90
2022-12-01T21:36:49.567Z,1.88
2022-12-01T21:39:18.884Z,1.93
2022-12-01T21:41:48.593Z,1.97
2022-12-01T21:44:21.087Z,1.98
2022-12-01T21:46:51.824Z,1.95
2022-12-01T21:49:21.340Z,1.89
2022-12-01T21:51:51.160Z,1.92
2022-12-01T21:54:20.480Z,1.93
2022-12-01T21:56:49.386Z,1.90
2022-12-01T21:59:21.851Z,1.97
2022-12-01T22:01:54.899Z,2.01
2022-12-01T22:04:24.882Z,2.01
2022-12-01T22:06:53.858Z,2.04
2022-12-01T22:09:23.504Z,2.05
2022-12-01T22:12:01.590Z,2.06
2022-12-01T22:14:32.619Z,2.07
2022-12-01T22:17:20.867Z,2.09
2022-12-01T22:20:00.277Z,2.09
2022-12-01T22:22:30.290Z,2.12
2022-12-01T22:24:59.708Z,2.13
2022-12-01T22:27:38.193Z,2.11
2022-12-01T22:30:06.029Z,2.12
2022-12-01T22:32:36.031Z,2.10
2022-12-01T22:35:09.948Z,2.09
2022-12-01T22:37:44.808Z,2.13
2022-12-01T22:40:31.963Z,2.15
2022-12-01T22:43:20.319Z,2.16
2022-12-01T22:45:49.685Z,2.04
2022-12-01T22:48:37.022Z,2.10
2022-12-01T22:51:14.148Z,2.10
2022-12-01T22:53:42.943Z,2.15
2022-12-01T22:56:34.339Z,2.10
2022-12-01T22:59:10.419Z,2.04
2022-12-01T23:01:40.964Z,2.08
2022-12-01T23:04:20.386Z,2.10
2022-12-01T23:06:48.596Z,2.08
2022-12-01T23:09:16.491Z,2.04
2022-12-01T23:11:45.466Z,2.05
2022-12-01T23:14:15.712Z,2.09
2022-12-01T23:16:43.615Z,2.10
2022-12-01T23:19:11.519Z,2.10
2022-12-01T23:21:39.432Z,2.03
2022-12-01T23:24:08.783Z,2.01
2022-12-01T23:26:36.712Z,1.99
2022-12-01T23:29:04.597Z,2.03
2022-12-01T23:31:33.256Z,2.04
2022-12-01T23:34:01.225Z,2.02
2022-12-01T23:36:29.857Z,2.06
2022-12-01T23:38:59.265Z,2.10
2022-12-01T23:41:33.310Z,2.16
2022-12-01T23:44:03.966Z,2.17
2022-12-01T23:46:32.503Z,2.19
2022-12-01T23:49:03.030Z,2.26
2022-12-01T23:51:32.276Z,2.31
2022-12-01T23:54:01.173Z,2.31
2022-12-01T23:56:31.656Z,2.23
2022-12-01T23:59:00.950Z,2.16
